Time;durP1;ratioP1;P1;durP2;ratioP2;P2;SDS_P1;SDS_P2;PMS_P1;PMS_P2;Temp;Humidity;BMP_temperature;BMP_pressure;BME280_temperature;BME280_humidity;BME280_pressure;Samples;Min_cycle;Max_cycle;Signal;HPM_P1;HPM_P2
2021/09/10 00:00:58;;;;;;;8.77;5.97;;;;;;;18.47;57.34;100372.56;4900937;28;127788;-59
2021/09/10 00:03:24;;;;;;;6.95;6.25;;;;;;;18.46;57.41;100372.88;4899898;28;126539;-61
2021/09/10 00:05:50;;;;;;;8.07;6.20;;;;;;;18.44;57.17;100370.47;4900624;28;121415;-60
2021/09/10 00:08:16;;;;;;;8.43;6.07;;;;;;;18.39;57.63;100374.19;4900639;28;119991;-61
2021/09/10 00:10:42;;;;;;;8.07;6.03;;;;;;;18.36;57.38;100372.09;4900132;28;127278;-59
2021/09/10 00:13:08;;;;;;;7.13;6.32;;;;;;;18.32;57.82;100371.13;4900221;28;126065;-59
2021/09/10 00:15:34;;;;;;;7.30;6.35;;;;;;;18.32;57.98;100376.59;4900933;28;123332;-59
2021/09/10 00:18:00;;;;;;;6.75;6.00;;;;;;;18.30;58.05;100375.28;4900086;28;125539;-59
2021/09/10 00:20:26;;;;;;;7.63;6.25;;;;;;;18.28;58.22;100374.81;4901357;28;98456;-59
2021/09/10 00:22:52;;;;;;;6.88;5.72;;;;;;;18.28;57.74;100374.81;4900085;28;125712;-59
2021/09/10 00:25:18;;;;;;;8.05;5.72;;;;;;;18.26;58.30;100377.06;4900221;28;121896;-59
2021/09/10 00:27:44;;;;;;;6.47;5.80;;;;;;;18.24;58.15;100382.03;4900853;28;98520;-61
2021/09/10 00:30:11;;;;;;;8.60;5.88;;;;;;;18.19;58.31;100382.97;4899935;28;128484;-59
2021/09/10 00:32:37;;;;;;;6.57;5.68;;;;;;;18.16;58.39;100383.66;4900046;28;114482;-61
2021/09/10 00:35:04;;;;;;;6.20;5.53;;;;;;;18.14;58.76;100380.41;4900208;28;123062;-59
2021/09/10 00:37:30;;;;;;;7.70;5.85;;;;;;;18.12;58.80;100374.50;4900952;28;98268;-59
2021/09/10 00:39:56;;;;;;;6.45;5.45;;;;;;;18.10;58.82;100380.25;4899451;28;121432;-61
2021/09/10 00:42:22;;;;;;;6.80;5.43;;;;;;;18.09;58.97;100383.31;4899965;28;113715;-60
2021/09/10 00:44:48;;;;;;;5.85;5.30;;;;;;;18.07;58.91;100382.81;4901880;28;98040;-59
2021/09/10 00:47:15;;;;;;;6.28;5.47;;;;;;;18.06;59.11;100381.22;4899574;28;126661;-61
2021/09/10 00:49:41;;;;;;;8.93;5.85;;;;;;;18.05;59.49;100380.41;4899313;28;104016;-59
2021/09/10 00:52:07;;;;;;;8.45;5.57;;;;;;;18.04;59.35;100375.28;4900843;28;100992;-59
2021/09/10 00:54:33;;;;;;;7.22;5.35;;;;;;;18.03;59.14;100374.47;4899860;28;121634;-59
2021/09/10 00:56:59;;;;;;;6.10;5.50;;;;;;;18.02;59.29;100386.50;4900698;28;98375;-61
2021/09/10 00:59:25;;;;;;;7.43;5.43;;;;;;;17.99;59.42;100384.41;4882599;28;98347;-59
2021/09/10 01:01:51;;;;;;;6.47;5.57;;;;;;;17.99;59.35;100380.88;4899527;28;125458;-61
2021/09/10 01:04:18;;;;;;;6.35;5.63;;;;;;;17.97;59.35;100392.13;4899484;28;120939;-61
2021/09/10 01:06:44;;;;;;;7.65;5.90;;;;;;;17.95;59.59;100385.38;4882179;28;115167;-60
2021/09/10 01:09:10;;;;;;;6.38;5.78;;;;;;;17.95;59.50;100394.34;4882463;28;98411;-59
2021/09/10 01:11:36;;;;;;;5.85;5.22;;;;;;;17.93;59.53;100393.06;4882213;28;97945;-59
2021/09/10 01:14:02;;;;;;;6.80;5.07;;;;;;;17.91;59.43;100394.19;4898042;28;123501;-59
2021/09/10 01:16:28;;;;;;;5.80;5.20;;;;;;;17.88;59.65;100397.56;4882262;28;99751;-61
2021/09/10 01:18:54;;;;;;;7.10;4.80;;;;;;;17.87;59.96;100389.69;4899706;28;126767;-61
2021/09/10 01:21:20;;;;;;;6.85;5.18;;;;;;;17.85;59.71;100389.22;4900079;28;98494;-61
2021/09/10 01:23:47;;;;;;;6.43;5.00;;;;;;;17.85;59.60;100397.41;4899364;28;121437;-59
2021/09/10 01:26:13;;;;;;;7.75;5.30;;;;;;;17.82;59.58;100390.63;4898863;28;128699;-59
2021/09/10 01:28:39;;;;;;;6.78;4.65;;;;;;;17.80;59.86;100390.16;4899836;28;128319;-59
2021/09/10 01:31:05;;;;;;;5.88;5.20;;;;;;;17.77;60.03;100390.00;4897723;28;125444;-59
2021/09/10 01:33:31;;;;;;;5.72;5.00;;;;;;;17.73;59.85;100392.53;4899219;28;123343;-59
2021/09/10 01:35:57;;;;;;;6.07;4.78;;;;;;;17.71;60.41;100393.94;4899732;28;99321;-59
2021/09/10 01:38:25;;;;;;;5.22;4.72;;;;;;;17.66;60.34;100392.97;4899475;28;127706;-61
2021/09/10 01:40:51;;;;;;;6.85;4.90;;;;;;;17.64;60.48;100392.50;4900028;28;98107;-60
2021/09/10 01:43:17;;;;;;;6.45;5.07;;;;;;;17.61;60.25;100381.44;4900099;28;97894;-59
2021/09/10 01:45:43;;;;;;;5.22;4.68;;;;;;;17.56;60.38;100379.63;4901817;28;98573;-61
2021/09/10 01:48:09;;;;;;;7.85;5.13;;;;;;;17.54;60.74;100391.97;4903039;28;128073;-61
2021/09/10 01:50:35;;;;;;;7.10;5.03;;;;;;;17.50;60.50;100389.06;4904021;28;97898;-59
2021/09/10 01:53:01;;;;;;;7.03;5.05;;;;;;;17.47;60.70;100394.34;4902989;28;123087;-61
2021/09/10 01:55:30;;;;;;;5.70;5.20;;;;;;;17.42;61.01;100401.56;4901600;28;98577;-59
2021/09/10 01:57:56;;;;;;;6.47;5.30;;;;;;;17.41;61.16;100393.69;4903897;28;97780;-59
2021/09/10 02:00:22;;;;;;;5.63;5.13;;;;;;;17.38;60.99;100397.06;4902014;28;127356;-59
2021/09/10 02:02:48;;;;;;;6.93;4.93;;;;;;;17.36;61.09;100396.53;4903165;28;123552;-61
2021/09/10 02:05:14;;;;;;;6.50;4.90;;;;;;;17.36;61.11;100396.53;4881743;28;106329;-61
2021/09/10 02:07:40;;;;;;;5.63;5.10;;;;;;;17.35;61.04;100403.91;4883570;28;124829;-59
2021/09/10 02:10:11;;;;;;;5.53;5.00;;;;;;;17.32;60.80;100399.09;4864858;28;114888;-59
2021/09/10 02:12:37;;;;;;;6.25;4.63;;;;;;;17.34;61.33;100402.31;4881963;28;97863;-61
2021/09/10 02:15:05;;;;;;;6.22;4.78;;;;;;;17.34;61.03;100405.03;4884214;28;98255;-59
2021/09/10 02:17:31;;;;;;;7.75;5.00;;;;;;;17.35;60.97;100403.13;4882713;28;117790;-61
2021/09/10 02:19:57;;;;;;;5.40;4.60;;;;;;;17.34;60.82;100406.97;4882773;28;98018;-59
2021/09/10 02:22:23;;;;;;;5.82;4.80;;;;;;;17.33;60.84;100406.16;4883562;28;97722;-59
2021/09/10 02:24:49;;;;;;;6.47;4.80;;;;;;;17.31;61.15;100400.22;4882844;28;128069;-60
2021/09/10 02:27:16;;;;;;;5.40;4.90;;;;;;;17.29;60.81;100388.84;4883405;28;111811;-61
2021/09/10 02:29:42;;;;;;;7.20;4.93;;;;;;;17.30;61.18;100386.91;4882433;28;97982;-61
2021/09/10 02:32:08;;;;;;;7.03;5.13;;;;;;;17.28;61.09;100394.59;4882782;28;97841;-60
2021/09/10 02:34:34;;;;;;;7.00;5.30;;;;;;;17.26;60.99;100392.19;4881444;28;128931;-61
2021/09/10 02:37:00;;;;;;;6.72;4.95;;;;;;;17.26;60.96;100388.66;4882665;28;126834;-59
2021/09/10 02:39:26;;;;;;;5.15;4.65;;;;;;;17.23;61.27;100381.91;4881929;28;127270;-60
2021/09/10 02:41:52;;;;;;;7.45;4.80;;;;;;;17.22;61.16;100385.75;4882426;28;104117;-61
2021/09/10 02:44:18;;;;;;;6.38;4.88;;;;;;;17.20;61.41;100382.53;4882343;28;128045;-61
2021/09/10 02:46:44;;;;;;;5.75;5.15;;;;;;;17.19;61.37;100391.84;4882475;28;128097;-60
2021/09/10 02:49:10;;;;;;;7.10;4.78;;;;;;;17.18;61.40;100384.78;4882177;28;127332;-60
2021/09/10 02:51:36;;;;;;;5.65;5.07;;;;;;;17.16;61.13;100387.81;4881961;28;120519;-59
2021/09/10 02:54:02;;;;;;;7.05;5.15;;;;;;;17.15;61.21;100390.84;4882491;28;127165;-60
2021/09/10 02:56:28;;;;;;;5.47;4.97;;;;;;;17.13;61.50;100385.72;4882432;28;128493;-61
2021/09/10 02:58:54;;;;;;;5.88;5.05;;;;;;;17.12;61.11;100392.28;4881387;28;127602;-59
2021/09/10 03:01:21;;;;;;;6.70;4.93;;;;;;;17.10;61.28;100397.25;4883478;28;97954;-59
2021/09/10 03:03:47;;;;;;;6.05;4.72;;;;;;;17.08;61.01;100393.22;4889880;28;97962;-61
2021/09/10 03:06:13;;;;;;;6.70;5.15;;;;;;;17.08;61.30;100394.00;4901510;28;127849;-59
2021/09/10 03:08:39;;;;;;;8.48;5.00;;;;;;;17.07;61.15;100394.34;4901764;28;122781;-59
2021/09/10 03:11:05;;;;;;;6.40;4.68;;;;;;;17.05;61.15;100391.09;4901016;28;122447;-60
2021/09/10 03:13:31;;;;;;;6.60;4.85;;;;;;;17.03;60.79;100398.81;4901996;28;100294;-61
2021/09/10 03:15:57;;;;;;;6.88;4.70;;;;;;;17.04;60.90;100392.22;4901568;28;127898;-59
2021/09/10 03:18:23;;;;;;;9.73;4.55;;;;;;;17.01;60.54;100390.13;4900981;28;125003;-61
2021/09/10 03:20:49;;;;;;;6.93;4.72;;;;;;;17.01;60.82;100399.09;4901176;28;120638;-61
2021/09/10 03:23:15;;;;;;;7.25;4.82;;;;;;;17.01;61.03;100395.56;4900893;28;128747;-61
2021/09/10 03:25:41;;;;;;;6.90;5.03;;;;;;;17.00;61.04;100399.41;4902590;28;98620;-59
2021/09/10 03:28:07;;;;;;;5.55;4.65;;;;;;;16.99;60.99;100400.53;4901343;28;125557;-58
2021/09/10 03:30:33;;;;;;;6.30;4.90;;;;;;;16.97;60.95;100397.31;4901730;28;97969;-59
2021/09/10 03:32:59;;;;;;;6.40;5.00;;;;;;;16.96;61.09;100399.22;4901295;28;98897;-59
2021/09/10 03:35:25;;;;;;;5.65;4.70;;;;;;;16.95;60.57;100397.63;4901065;28;127859;-61
2021/09/10 03:37:51;;;;;;;5.80;3.70;;;;;;;16.91;59.72;100392.00;4882783;28;126778;-59
2021/09/10 03:40:17;;;;;;;5.47;3.40;;;;;;;16.89;59.46;100393.41;4902107;28;97670;-59
2021/09/10 03:42:43;;;;;;;5.78;3.70;;;;;;;16.90;59.33;100392.31;4901474;28;98587;-59
2021/09/10 03:45:10;;;;;;;6.00;3.00;;;;;;;16.93;58.67;100391.69;4899098;28;98464;-59
2021/09/10 03:47:36;;;;;;;6.47;3.03;;;;;;;16.94;58.29;100393.31;4900929;28;97874;-59
2021/09/10 03:50:02;;;;;;;6.82;2.97;;;;;;;16.95;58.36;100386.75;4900618;28;124402;-60
2021/09/10 03:52:28;;;;;;;3.92;2.53;;;;;;;16.96;57.89;100391.06;4901047;28;114305;-61
2021/09/10 03:54:54;;;;;;;4.50;2.75;;;;;;;17.00;57.01;100383.88;4883010;28;127859;-61
2021/09/10 03:57:20;;;;;;;5.40;2.65;;;;;;;17.04;57.05;100387.59;4898949;28;127661;-60
2021/09/10 03:59:46;;;;;;;4.55;2.70;;;;;;;17.07;56.41;100388.88;4883564;28;122978;-59
2021/09/10 04:02:12;;;;;;;3.53;2.38;;;;;;;17.10;55.96;100380.09;4900079;28;128573;-61
2021/09/10 04:04:38;;;;;;;3.22;2.30;;;;;;;17.12;55.58;100375.94;4900651;28;127731;-59
2021/09/10 04:07:04;;;;;;;3.92;2.17;;;;;;;17.15;55.51;100382.69;4900894;28;126263;-60
2021/09/10 04:09:30;;;;;;;5.20;2.67;;;;;;;17.18;55.73;100388.31;4901118;28;97728;-59
2021/09/10 04:11:56;;;;;;;5.22;2.58;;;;;;;17.22;55.44;100387.69;4899970;28;119460;-58
2021/09/10 04:14:22;;;;;;;4.03;2.47;;;;;;;17.24;55.94;100382.72;4899568;28;126544;-60
2021/09/10 04:16:48;;;;;;;4.22;2.67;;;;;;;17.26;55.86;100380.50;4900533;28;114530;-59
2021/09/10 04:19:15;;;;;;;4.22;2.50;;;;;;;17.28;54.97;100380.97;4900626;28;121213;-60
2021/09/10 04:21:41;;;;;;;5.22;2.80;;;;;;;17.28;55.00;100376.31;4898579;28;108364;-59
2021/09/10 04:24:07;;;;;;;7.13;2.88;;;;;;;17.30;54.84;100384.19;4899839;28;127657;-60
2021/09/10 04:26:33;;;;;;;3.25;2.42;;;;;;;17.31;55.06;100391.25;4900449;28;127856;-59
2021/09/10 04:28:59;;;;;;;5.60;2.70;;;;;;;17.32;55.00;100390.91;4899127;28;97789;-59
2021/09/10 04:31:25;;;;;;;3.53;2.60;;;;;;;17.33;55.01;100389.00;4899815;28;128117;-59
2021/09/10 04:33:51;;;;;;;5.47;2.90;;;;;;;17.35;54.60;100401.19;4899530;28;126532;-59
2021/09/10 04:36:17;;;;;;;3.97;2.90;;;;;;;17.36;55.04;100393.81;4899605;28;124761;-59
2021/09/10 04:38:43;;;;;;;4.13;2.50;;;;;;;17.37;54.55;100395.41;4915293;28;103587;-59
2021/09/10 04:41:09;;;;;;;4.22;2.65;;;;;;;17.39;54.44;100402.19;4893909;28;128030;-59
2021/09/10 04:43:35;;;;;;;4.95;2.58;;;;;;;17.38;54.25;100400.56;4885403;28;127883;-59
2021/09/10 04:46:01;;;;;;;6.55;2.72;;;;;;;17.40;54.37;100400.25;4899333;28;97931;-59
2021/09/10 04:48:27;;;;;;;4.25;2.47;;;;;;;17.41;54.29;100405.41;4901068;28;97738;-59
2021/09/10 04:50:53;;;;;;;5.50;2.80;;;;;;;17.45;54.42;100415.66;4899448;28;98034;-59
2021/09/10 04:53:19;;;;;;;5.28;2.80;;;;;;;17.46;54.50;100409.91;4888860;28;126902;-61
2021/09/10 04:55:45;;;;;;;3.33;2.45;;;;;;;17.49;53.87;100413.91;4877428;28;128462;-59
2021/09/10 04:58:11;;;;;;;5.35;2.70;;;;;;;17.51;54.14;100411.69;4878181;28;120019;-59
2021/09/10 05:00:37;;;;;;;6.30;2.60;;;;;;;17.54;53.83;100414.56;4877022;28;128448;-61
2021/09/10 05:03:04;;;;;;;4.25;2.45;;;;;;;17.56;53.87;100406.88;4877378;28;127219;-61
2021/09/10 05:05:30;;;;;;;5.45;2.60;;;;;;;17.60;54.14;100413.31;4875405;28;127440;-61
2021/09/10 05:07:56;;;;;;;5.63;2.50;;;;;;;17.64;54.56;100416.19;4876795;28;124422;-61
2021/09/10 05:10:22;;;;;;;4.25;2.65;;;;;;;17.67;54.30;100418.31;4885588;28;97959;-61
2021/09/10 05:12:48;;;;;;;7.82;2.90;;;;;;;17.71;54.40;100410.31;4878920;28;98715;-59
2021/09/10 05:15:14;;;;;;;4.80;2.78;;;;;;;17.74;53.94;100415.94;4877062;28;126229;-60
2021/09/10 05:17:40;;;;;;;3.97;2.42;;;;;;;17.76;53.74;100415.63;4878650;28;120987;-60
2021/09/10 05:20:08;;;;;;;4.05;2.63;;;;;;;17.78;54.64;100427.84;4878820;28;127098;-60
2021/09/10 05:22:34;;;;;;;3.90;2.70;;;;;;;17.85;54.14;100432.84;4881892;28;98272;-61
2021/09/10 05:25:01;;;;;;;4.85;3.08;;;;;;;17.95;54.79;100431.72;4879079;28;98131;-60
2021/09/10 05:27:27;;;;;;;5.22;2.65;;;;;;;18.05;54.88;100436.88;4881736;28;97905;-59
2021/09/10 05:29:53;;;;;;;4.85;3.17;;;;;;;18.14;55.08;100435.78;4880878;28;98696;-61
2021/09/10 05:32:20;;;;;;;7.15;3.20;;;;;;;18.22;53.92;100438.84;4881413;28;98309;-59
2021/09/10 05:34:46;;;;;;;4.45;3.10;;;;;;;18.33;54.60;100440.94;4881373;28;103355;-59
2021/09/10 05:37:12;;;;;;;6.32;2.97;;;;;;;18.43;54.59;100445.28;4882516;28;122882;-59
2021/09/10 05:39:38;;;;;;;6.55;2.92;;;;;;;18.50;54.33;100440.13;4880305;28;126780;-60
2021/09/10 05:42:04;;;;;;;4.40;2.67;;;;;;;18.58;53.34;100441.25;4879801;28;127984;-61
2021/09/10 05:44:30;;;;;;;5.00;3.05;;;;;;;18.62;53.24;100442.22;4886560;28;98470;-60
2021/09/10 05:46:56;;;;;;;7.32;3.03;;;;;;;18.69;53.01;100450.72;4881761;28;122757;-59
2021/09/10 05:49:22;;;;;;;6.47;3.10;;;;;;;18.76;53.20;100444.81;4886174;28;103944;-60
2021/09/10 05:51:48;;;;;;;5.25;3.00;;;;;;;18.83;53.15;100448.69;4879962;28;128167;-59
2021/09/10 05:54:14;;;;;;;5.70;2.65;;;;;;;18.89;52.73;100452.81;4880138;28;127833;-61
2021/09/10 05:56:40;;;;;;;6.53;2.70;;;;;;;18.98;52.61;100458.31;4881328;28;122912;-59
2021/09/10 05:59:06;;;;;;;4.80;2.90;;;;;;;19.07;52.41;100458.28;4880041;28;128356;-59
2021/09/10 06:01:32;;;;;;;3.88;2.80;;;;;;;19.17;52.20;100465.31;4880656;28;99114;-61
2021/09/10 06:03:58;;;;;;;5.95;2.90;;;;;;;19.27;52.25;100463.06;4891797;28;128652;-59
2021/09/10 06:06:24;;;;;;;4.00;2.70;;;;;;;19.36;52.31;100463.81;4882076;28;97762;-61
2021/09/10 06:08:50;;;;;;;5.18;2.85;;;;;;;19.46;52.14;100462.69;4879847;28;128500;-61
2021/09/10 06:11:16;;;;;;;4.05;3.17;;;;;;;19.58;52.06;100462.00;4892718;28;128469;-61
2021/09/10 06:13:42;;;;;;;6.00;2.90;;;;;;;19.67;51.50;100461.97;4879176;28;127765;-61
2021/09/10 06:16:08;;;;;;;5.07;3.05;;;;;;;19.76;51.55;100469.00;4882053;28;98030;-61
2021/09/10 06:18:35;;;;;;;4.55;2.90;;;;;;;19.78;51.55;100468.69;4880322;28;126402;-59
2021/09/10 06:21:03;;;;;;;4.38;3.20;;;;;;;19.88;51.35;100467.50;4881083;28;101005;-61
2021/09/10 06:23:29;;;;;;;5.05;2.88;;;;;;;19.95;51.23;100474.06;4881450;28;98111;-60
2021/09/10 06:25:55;;;;;;;5.43;2.95;;;;;;;19.99;51.60;100475.00;4881326;28;99078;-59
2021/09/10 06:28:21;;;;;;;6.45;2.92;;;;;;;20.00;51.58;100475.81;4883633;28;127738;-60
2021/09/10 06:30:47;;;;;;;3.65;2.60;;;;;;;19.99;51.57;100482.41;4876645;28;126300;-60
2021/09/10 06:33:13;;;;;;;6.38;3.30;;;;;;;20.04;51.37;100477.56;4892313;28;127198;-62
2021/09/10 06:35:39;;;;;;;6.97;3.05;;;;;;;20.17;51.28;100475.72;4879698;28;122458;-61
2021/09/10 06:38:05;;;;;;;6.18;3.20;;;;;;;20.31;51.31;100475.47;4905735;28;119614;-59
2021/09/10 06:40:31;;;;;;;4.18;2.85;;;;;;;20.46;51.51;100483.06;4880640;28;98334;-61
2021/09/10 06:42:59;;;;;;;4.97;2.80;;;;;;;20.67;50.96;100488.59;4879556;28;126507;-59
2021/09/10 06:45:25;;;;;;;5.05;3.03;;;;;;;20.79;50.56;100487.88;4880176;28;98220;-59
2021/09/10 06:47:51;;;;;;;4.35;3.13;;;;;;;20.87;50.72;100488.91;4878581;28;98108;-59
2021/09/10 06:50:17;;;;;;;6.25;3.28;;;;;;;20.97;50.49;100488.50;4879806;28;98785;-61
2021/09/10 06:52:44;;;;;;;5.20;3.05;;;;;;;21.04;50.35;100491.50;4880050;28;126844;-60
2021/09/10 06:55:10;;;;;;;4.15;2.95;;;;;;;21.11;50.30;100480.78;4886434;28;97806;-61
2021/09/10 06:57:37;;;;;;;5.53;3.00;;;;;;;21.22;50.21;100492.09;4895663;28;124744;-59
2021/09/10 07:00:05;;;;;;;5.03;3.10;;;;;;;21.27;50.24;100480.94;4894990;28;121608;-59
2021/09/10 07:02:31;;;;;;;4.43;2.83;;;;;;;21.36;50.36;100491.84;4884140;28;115125;-61
2021/09/10 07:04:57;;;;;;;5.50;3.13;;;;;;;21.44;50.29;100489.00;4878510;28;123601;-61
2021/09/10 07:07:23;;;;;;;5.72;3.20;;;;;;;21.53;50.35;100499.88;4879287;28;99433;-59
2021/09/10 07:09:50;;;;;;;5.35;3.28;;;;;;;21.61;50.25;100498.97;4878393;28;127596;-59
2021/09/10 07:12:20;;;;;;;4.35;3.10;;;;;;;21.75;50.47;100509.63;4882064;28;98268;-59
2021/09/10 07:14:46;;;;;;;7.22;3.28;;;;;;;21.90;49.63;100506.22;4880320;28;97869;-61
2021/09/10 07:17:12;;;;;;;4.68;3.28;;;;;;;22.04;49.42;100505.84;4878293;28;120771;-60
2021/09/10 07:19:38;;;;;;;4.78;3.35;;;;;;;22.23;49.46;100506.09;4878965;28;98215;-59
2021/09/10 07:22:04;;;;;;;4.28;3.20;;;;;;;22.43;49.00;100509.84;4879718;28;98165;-59
2021/09/10 07:24:30;;;;;;;6.63;3.30;;;;;;;22.60;48.97;100518.97;4892578;28;99711;-60
2021/09/10 07:26:56;;;;;;;4.55;3.45;;;;;;;22.79;48.57;100521.88;4878670;28;128915;-61
2021/09/10 07:29:23;;;;;;;5.03;3.10;;;;;;;22.97;48.65;100520.50;4885041;28;98765;-60
2021/09/10 07:31:53;;;;;;;4.03;3.10;;;;;;;23.20;48.42;100518.00;4878636;28;97996;-61
2021/09/10 07:34:19;;;;;;;4.95;2.95;;;;;;;23.39;48.20;100528.31;4879839;28;98344;-62
2021/09/10 07:36:49;;;;;;;7.75;3.58;;;;;;;23.68;47.38;100520.84;4879946;28;126944;-60
2021/09/10 07:39:19;;;;;;;6.50;3.33;;;;;;;24.02;46.78;100526.78;4879161;28;98175;-61
2021/09/10 07:41:45;;;;;;;5.53;3.50;;;;;;;24.37;46.78;100529.56;4879235;28;116817;-61
2021/09/10 07:44:13;;;;;;;7.40;3.58;;;;;;;24.65;46.54;100530.22;4878529;28;97786;-60
2021/09/10 07:46:41;;;;;;;4.50;3.30;;;;;;;24.92;46.08;100524.88;4879181;28;97801;-60
2021/09/10 07:49:08;;;;;;;7.60;3.65;;;;;;;25.25;45.24;100518.06;4886187;28;115669;-60
2021/09/10 07:51:35;;;;;;;4.95;3.60;;;;;;;25.61;44.54;100525.81;4881177;28;98179;-61
2021/09/10 07:54:05;;;;;;;5.00;3.38;;;;;;;25.98;43.80;100517.00;4879046;28;98370;-60
2021/09/10 07:56:31;;;;;;;6.65;3.63;;;;;;;26.44;43.11;100522.38;4878872;28;99704;-60
2021/09/10 07:58:58;;;;;;;5.65;3.60;;;;;;;26.99;42.45;100521.94;4886043;28;98627;-62
2021/09/10 08:01:24;;;;;;;6.85;3.50;;;;;;;27.28;41.53;100525.88;4878556;28;118605;-61
2021/09/10 08:04:03;;;;;;;6.43;3.67;;;;;;;27.16;42.13;100524.16;4957985;28;98030;-61
2021/09/10 08:06:29;;;;;;;5.63;3.50;;;;;;;27.84;40.74;100533.94;4928362;28;97886;-61
2021/09/10 08:08:55;;;;;;;8.18;3.47;;;;;;;28.30;39.96;100529.91;4916321;28;99128;-60
2021/09/10 08:11:21;;;;;;;7.43;3.40;;;;;;;27.99;40.54;100534.84;4914101;28;128478;-59
2021/09/10 08:13:47;;;;;;;5.80;3.47;;;;;;;27.94;40.73;100534.38;4916356;28;97987;-60
2021/09/10 08:16:13;;;;;;;5.40;3.83;;;;;;;28.41;39.85;100533.56;4916299;28;110381;-61
2021/09/10 08:18:39;;;;;;;6.30;3.67;;;;;;;29.08;39.13;100535.88;4915673;28;128120;-59
2021/09/10 08:21:05;;;;;;;4.32;3.40;;;;;;;29.42;38.65;100532.00;4915289;28;127556;-61
2021/09/10 08:23:32;;;;;;;4.95;3.83;;;;;;;29.88;38.12;100540.41;4915156;28;127967;-61
2021/09/10 08:25:58;;;;;;;5.13;3.83;;;;;;;30.47;36.91;100551.06;4917309;28;98087;-60
2021/09/10 08:28:24;;;;;;;5.70;4.00;;;;;;;29.91;37.44;100547.94;4915520;28;127599;-59
2021/09/10 08:30:50;;;;;;;5.07;3.50;;;;;;;30.18;36.97;100550.31;4916400;28;103827;-60
2021/09/10 08:33:16;;;;;;;5.93;4.00;;;;;;;29.32;38.18;100542.69;4914670;28;128442;-61
2021/09/10 08:35:42;;;;;;;5.93;3.80;;;;;;;29.46;38.00;100541.13;4916844;28;97900;-61
2021/09/10 08:38:08;;;;;;;6.25;3.50;;;;;;;28.87;39.25;100535.78;4907055;28;127447;-59
2021/09/10 08:40:34;;;;;;;6.05;3.60;;;;;;;30.19;37.44;100533.25;4916262;28;98223;-61
2021/09/10 08:43:01;;;;;;;5.15;3.90;;;;;;;30.91;36.40;100542.19;4915947;28;98631;-62
2021/09/10 08:45:28;;;;;;;3.78;3.47;;;;;;;31.59;35.33;100536.25;4913770;28;111203;-60
2021/09/10 08:47:54;;;;;;;4.68;3.70;;;;;;;32.18;34.82;100538.94;4915953;28;98572;-61
2021/09/10 08:50:21;;;;;;;5.05;4.05;;;;;;;32.61;34.28;100534.94;4915762;28;114643;-61
2021/09/10 08:52:47;;;;;;;4.97;3.80;;;;;;;33.06;33.63;100537.63;4914014;28;98909;-62
2021/09/10 08:55:16;;;;;;;3.92;3.50;;;;;;;33.53;33.50;100543.34;4916054;28;110935;-61
2021/09/10 08:58:00;;;;;;;5.35;3.60;;;;;;;34.20;33.43;100527.44;4913703;28;98312;-60
2021/09/10 09:00:36;;;;;;;4.65;3.90;;;;;;;34.72;32.32;100531.66;4912629;28;128890;-60
2021/09/10 09:03:10;;;;;;;5.35;4.15;;;;;;;35.10;31.80;100526.47;4915311;28;98519;-60
2021/09/10 09:05:36;;;;;;;3.97;3.58;;;;;;;35.08;31.99;100529.69;4915845;28;97998;-61
2021/09/10 09:08:16;;;;;;;5.47;4.40;;;;;;;35.57;31.65;100526.22;4914997;28;124592;-60
2021/09/10 09:11:04;;;;;;;5.72;4.15;;;;;;;36.10;31.27;100527.66;4913289;28;98897;-60
2021/09/10 09:13:38;;;;;;;5.22;4.35;;;;;;;36.30;30.83;100529.53;4902935;28;97793;-60
2021/09/10 09:16:26;;;;;;;5.03;3.63;;;;;;;36.64;30.61;100533.84;4885539;28;98221;-60
2021/09/10 09:18:55;;;;;;;6.32;3.97;;;;;;;36.71;29.65;100526.00;4900879;28;98752;-61
2021/09/10 09:21:35;;;;;;;5.72;3.95;;;;;;;36.62;30.33;100525.84;4906915;28;99042;-61
2021/09/10 09:24:20;;;;;;;5.90;4.05;;;;;;;37.00;30.40;100519.56;4902915;28;105207;-61
2021/09/10 09:26:51;;;;;;;5.10;4.13;;;;;;;37.37;29.34;100517.19;4901811;28;97878;-60
2021/09/10 09:29:21;;;;;;;5.00;4.35;;;;;;;38.06;28.59;100520.91;4903280;28;98246;-61
2021/09/10 09:31:59;;;;;;;6.53;4.20;;;;;;;38.90;28.38;100513.88;4899835;28;99367;-61
2021/09/10 09:34:46;;;;;;;5.22;4.25;;;;;;;39.80;27.04;100516.72;4902218;28;97859;-61
2021/09/10 09:37:14;;;;;;;5.93;3.88;;;;;;;40.07;26.69;100513.13;4900105;28;98333;-61
2021/09/10 09:39:59;;;;;;;6.55;4.45;;;;;;;40.90;26.09;100505.34;4916882;28;98430;-61
2021/09/10 09:42:30;;;;;;;4.78;4.25;;;;;;;41.08;25.19;100510.19;4899921;28;98677;-61
2021/09/10 09:45:23;;;;;;;6.35;4.18;;;;;;;41.69;25.26;100507.97;4902269;28;97951;-60
2021/09/10 09:47:49;;;;;;;5.70;4.00;;;;;;;41.88;24.43;100508.63;4902533;28;98617;-61
2021/09/10 09:50:17;;;;;;;5.10;4.20;;;;;;;42.27;24.28;100503.00;4902452;28;127140;-61
2021/09/10 09:52:45;;;;;;;5.85;4.05;;;;;;;42.51;24.04;100500.06;4901230;28;113490;-61
2021/09/10 09:55:14;;;;;;;4.43;4.00;;;;;;;42.81;23.94;100503.69;4883675;28;118335;-60
2021/09/10 09:57:41;;;;;;;4.72;4.10;;;;;;;43.06;23.78;100503.09;4902466;28;98224;-60
2021/09/10 10:00:08;;;;;;;4.93;4.40;;;;;;;43.51;23.49;100494.44;4900618;28;99953;-61
2021/09/10 10:02:34;;;;;;;6.10;4.28;;;;;;;43.62;22.84;100497.44;4900523;28;99192;-60
2021/09/10 10:05:00;;;;;;;6.55;4.63;;;;;;;43.56;23.00;100496.59;4901484;28;115117;-60
2021/09/10 10:07:46;;;;;;;6.30;4.63;;;;;;;43.86;23.03;100500.06;4899435;28;111191;-61
2021/09/10 10:10:13;;;;;;;6.20;4.43;;;;;;;43.76;22.58;100499.44;4882947;28;112211;-61
2021/09/10 10:12:40;;;;;;;4.78;4.20;;;;;;;43.92;22.88;100483.91;4883212;28;110716;-61
2021/09/10 10:15:43;;;;;;;5.57;4.20;;;;;;;44.75;22.82;100483.19;4868112;28;101627;-60
2021/09/10 10:18:09;;;;;;;5.43;4.13;;;;;;;44.31;22.22;100477.88;4878933;28;98040;-61
2021/09/10 10:20:44;;;;;;;5.57;4.60;;;;;;;44.46;22.53;100478.53;4898974;28;128322;-61
2021/09/10 10:23:45;;;;;;;5.00;4.10;;;;;;;44.58;22.09;100476.59;4902079;28;98002;-60
2021/09/10 10:26:21;;;;;;;;;;;;;;;45.06;22.24;100478.78;4900141;28;98340;-61
2021/09/10 10:29:01;;;;;;;5.07;4.53;;;;;;;44.20;22.77;100472.06;4901910;28;98115;-61
2021/09/10 10:32:06;;;;;;;7.20;4.70;;;;;;;44.23;22.75;100462.56;4900868;28;107658;-60
2021/09/10 10:34:34;;;;;;;5.68;4.00;;;;;;;43.90;23.00;100471.50;4901594;28;98930;-61
2021/09/10 10:37:00;;;;;;;4.40;4.00;;;;;;;43.93;22.63;100464.81;4900999;28;98265;-61
2021/09/10 10:39:30;;;;;;;7.47;4.00;;;;;;;43.18;22.91;100464.34;4902328;28;98339;-61
2021/09/10 10:41:58;;;;;;;3.97;3.50;;;;;;;42.51;23.72;100466.09;4901270;28;99154;-61
2021/09/10 10:44:30;;;;;;;4.40;3.65;;;;;;;42.92;24.08;100464.22;4905940;28;99296;-61
2021/09/10 10:47:09;;;;;;;5.22;3.72;;;;;;;41.88;25.16;100454.88;4901660;28;98082;-60
2021/09/10 10:49:43;;;;;;;6.38;4.40;;;;;;;41.90;24.64;100458.03;4902334;28;98009;-61
2021/09/10 10:52:32;;;;;;;4.65;3.50;;;;;;;40.98;25.99;100455.75;4900764;28;98414;-61
2021/09/10 10:55:25;;;;;;;5.25;3.80;;;;;;;40.31;26.59;100452.00;4901235;28;98484;-61
2021/09/10 10:58:05;;;;;;;6.13;3.55;;;;;;;40.56;26.43;100455.72;4900762;28;97963;-60
2021/09/10 11:00:31;;;;;;;6.20;4.03;;;;;;;39.36;27.41;100458.50;4899241;28;102463;-61
2021/09/10 11:03:16;;;;;;;5.60;4.07;;;;;;;38.59;28.62;100455.50;4900776;28;98639;-60
2021/09/10 11:05:46;;;;;;;6.53;3.70;;;;;;;37.87;29.26;100453.69;4900566;28;98294;-61
2021/09/10 11:08:16;;;;;;;4.70;3.40;;;;;;;37.09;30.12;100458.66;4899723;28;98023;-60
2021/09/10 11:10:42;;;;;;;4.35;3.50;;;;;;;36.40;31.35;100454.75;4898681;28;97873;-61
2021/09/10 11:13:08;;;;;;;4.35;3.50;;;;;;;35.79;32.06;100454.34;4899307;28;127503;-61
2021/09/10 11:15:36;;;;;;;4.43;3.75;;;;;;;35.84;32.17;100458.63;4901634;28;99018;-60
2021/09/10 11:18:20;;;;;;;4.72;4.30;;;;;;;37.61;29.98;100453.75;4899576;28;118148;-60
2021/09/10 11:20:48;;;;;;;7.65;3.88;;;;;;;37.74;29.04;100465.00;4895639;28;112882;-61
2021/09/10 11:23:17;;;;;;;4.78;3.80;;;;;;;38.45;29.13;100456.84;4900938;28;97984;-61
2021/09/10 11:25:56;;;;;;;6.50;4.00;;;;;;;39.10;28.59;100448.69;4900306;28;99082;-61